createdAt,value
2023-04-06T00:01:36.237Z,100970.91
2023-04-06T00:03:39.546Z,100969.00
2023-04-06T00:05:42.547Z,100963.72
2023-04-06T00:07:45.452Z,100961.81
2023-04-06T00:09:48.313Z,100966.75
2023-04-06T00:11:51.362Z,100970.09
2023-04-06T00:13:54.520Z,100961.66
2023-04-06T00:15:57.517Z,100964.31
2023-04-06T00:18:01.949Z,100962.72
2023-04-06T00:20:05.409Z,100960.78
2023-04-06T00:22:08.314Z,100960.06
2023-04-06T00:24:11.487Z,100958.50
2023-04-06T00:26:14.345Z,100952.41
2023-04-06T00:28:26.216Z,100945.47
2023-04-06T00:30:29.279Z,100949.75
2023-04-06T00:32:32.506Z,100949.75
2023-04-06T00:34:36.867Z,100945.22
2023-04-06T00:36:39.799Z,100952.41
2023-04-06T00:38:42.766Z,100943.69
2023-04-06T00:40:46.307Z,100952.28
2023-04-06T00:42:49.425Z,100950.53
2023-04-06T00:44:52.486Z,100950.59
2023-04-06T00:46:55.488Z,100954.56
2023-04-06T00:48:59.080Z,100945.91
2023-04-06T00:51:03.913Z,100945.78
2023-04-06T00:53:06.832Z,100948.19
2023-04-06T00:55:10.446Z,100948.19
2023-04-06T00:57:17.914Z,100941.28
2023-04-06T00:59:22.276Z,100936.13
2023-04-06T01:01:26.151Z,100937.91
2023-04-06T01:03:31.534Z,100936.13
2023-04-06T01:05:35.615Z,100937.81
2023-04-06T01:07:40.040Z,100930.84
2023-04-06T01:09:47.737Z,100934.06
2023-04-06T01:11:57.881Z,100929.59
2023-04-06T01:14:05.996Z,100932.16
2023-04-06T01:16:23.792Z,100927.00
2023-04-06T01:18:40.170Z,100924.38
2023-04-06T01:20:53.275Z,100925.94
2023-04-06T01:22:58.408Z,100930.97
2023-04-06T01:25:01.478Z,100923.94
2023-04-06T01:27:13.386Z,100930.69
2023-04-06T01:29:42.063Z,100923.69
2023-04-06T01:31:46.732Z,100923.69
2023-04-06T01:33:49.803Z,100916.09
2023-04-06T01:35:56.001Z,100911.88
2023-04-06T01:38:01.235Z,100916.22
2023-04-06T01:40:09.630Z,100911.81
2023-04-06T01:42:23.469Z,100913.06
2023-04-06T01:44:27.364Z,100908.94
2023-04-06T01:46:41.619Z,100913.41
2023-04-06T01:48:46.228Z,100901.38
2023-04-06T01:50:55.836Z,100903.94
2023-04-06T01:53:06.242Z,100905.69
2023-04-06T01:55:10.438Z,100909.09
2023-04-06T01:57:31.800Z,100911.59
2023-04-06T01:59:44.727Z,100910.56
2023-04-06T02:01:55.827Z,100905.13
2023-04-06T02:04:00.805Z,100906.56
2023-04-06T02:06:04.711Z,100908.56
2023-04-06T02:08:13.197Z,100910.84
2023-04-06T02:10:16.973Z,100915.50
2023-04-06T02:12:21.199Z,100908.84
2023-04-06T02:14:27.573Z,100915.00
2023-04-06T02:16:34.363Z,100912.44
2023-04-06T02:18:37.255Z,100911.66
2023-04-06T02:20:39.265Z,100907.63
2023-04-06T02:22:42.297Z,100911.00
2023-04-06T02:24:47.465Z,100905.91
2023-04-06T02:26:50.921Z,100905.06
2023-04-06T02:28:53.993Z,100905.69
2023-04-06T02:30:56.972Z,100904.91
2023-04-06T02:33:04.539Z,100898.94
2023-04-06T02:35:15.827Z,100898.72
2023-04-06T02:37:21.463Z,100894.22
2023-04-06T02:39:24.286Z,100901.13
2023-04-06T02:41:28.928Z,100902.00
2023-04-06T02:43:35.968Z,100909.63
2023-04-06T02:45:48.553Z,100899.91
2023-04-06T02:47:52.312Z,100894.06
2023-04-06T02:49:55.523Z,100894.22
2023-04-06T02:51:58.534Z,100894.28
2023-04-06T02:54:05.918Z,100890.84
2023-04-06T02:56:09.361Z,100896.78
2023-04-06T02:58:26.883Z,100890.97
2023-04-06T03:00:32.891Z,100887.59
2023-04-06T03:02:36.194Z,100884.22
2023-04-06T03:04:45.114Z,100892.34
2023-04-06T03:06:58.803Z,100882.72
2023-04-06T03:09:11.400Z,100896.31
2023-04-06T03:11:17.900Z,100890.13
2023-04-06T03:13:21.307Z,100889.41
2023-04-06T03:15:28.971Z,100890.34
2023-04-06T03:17:41.354Z,100889.56
2023-04-06T03:19:49.452Z,100890.34
2023-04-06T03:21:52.680Z,100893.75
2023-04-06T03:23:57.388Z,100891.06
2023-04-06T03:26:00.348Z,100885.22
2023-04-06T03:28:03.780Z,100891.97
2023-04-06T03:30:09.610Z,100888.63
2023-04-06T03:32:14.034Z,100895.19
2023-04-06T03:34:18.295Z,100894.19
2023-04-06T03:36:21.439Z,100897.53
2023-04-06T03:38:24.574Z,100899.31
2023-04-06T03:40:27.660Z,100903.56
2023-04-06T03:42:30.857Z,100896.63
2023-04-06T03:44:39.725Z,100902.44
2023-04-06T03:46:43.353Z,100897.06
2023-04-06T03:48:50.729Z,100901.31
2023-04-06T03:50:55.224Z,100906.22
2023-04-06T03:52:58.398Z,100908.06
2023-04-06T03:55:01.401Z,100911.28
2023-04-06T03:57:04.696Z,100912.72
2023-04-06T03:59:07.967Z,100909.91
2023-04-06T04:01:11.273Z,100912.41
2023-04-06T04:03:14.347Z,100916.13
2023-04-06T04:05:20.445Z,100915.22
2023-04-06T04:07:23.502Z,100912.41
2023-04-06T04:09:29.929Z,100910.25
2023-04-06T04:11:33.086Z,100912.19
2023-04-06T04:13:37.612Z,100915.63
2023-04-06T04:15:42.285Z,100915.16
2023-04-06T04:17:47.818Z,100917.00
2023-04-06T04:19:51.016Z,100928.47
2023-04-06T04:21:55.574Z,100925.41
2023-04-06T04:24:08.051Z,100926.31
2023-04-06T04:26:12.749Z,100926.25
2023-04-06T04:28:16.861Z,100928.81
2023-04-06T04:30:21.125Z,100931.38
2023-04-06T04:32:24.373Z,100923.91
2023-04-06T04:34:27.629Z,100924.78
2023-04-06T04:36:30.824Z,100925.56
2023-04-06T04:38:37.681Z,100929.03
2023-04-06T04:40:40.736Z,100927.97
2023-04-06T04:42:46.022Z,100928.63
2023-04-06T04:44:55.362Z,100928.69
2023-04-06T04:47:09.438Z,100929.84
2023-04-06T04:49:22.466Z,100929.75
2023-04-06T04:51:27.393Z,100931.59
2023-04-06T04:53:45.785Z,100925.41
2023-04-06T04:56:02.177Z,100935.84
2023-04-06T04:58:05.519Z,100932.63
2023-04-06T05:00:22.642Z,100929.34
2023-04-06T05:02:26.722Z,100931.13
2023-04-06T05:04:48.997Z,100931.19
2023-04-06T05:07:05.769Z,100939.94
2023-04-06T05:09:11.116Z,100940.84
2023-04-06T05:11:17.061Z,100939.28
2023-04-06T05:13:25.348Z,100939.22
2023-04-06T05:15:30.344Z,100942.59
2023-04-06T05:17:39.925Z,100942.66
2023-04-06T05:19:44.624Z,100942.81
2023-04-06T05:21:49.713Z,100941.00
2023-04-06T05:23:52.733Z,100941.00
2023-04-06T05:25:57.357Z,100950.44
2023-04-06T05:28:00.440Z,100947.00
2023-04-06T05:30:16.972Z,100946.06
2023-04-06T05:32:25.587Z,100946.22
2023-04-06T05:34:29.468Z,100943.50
2023-04-06T05:36:33.971Z,100939.38
2023-04-06T05:38:41.998Z,100944.50
2023-04-06T05:40:54.544Z,100948.94
2023-04-06T05:43:09.518Z,100953.34
2023-04-06T05:45:17.835Z,100955.25
2023-04-06T05:47:24.964Z,100952.94
2023-04-06T05:49:39.209Z,100956.75
2023-04-06T05:51:47.332Z,100957.75
2023-04-06T05:53:50.394Z,100956.13
2023-04-06T05:55:53.346Z,100957.97
2023-04-06T05:57:57.837Z,100951.13
2023-04-06T06:00:02.340Z,100961.72
2023-04-06T06:02:15.449Z,100959.91
2023-04-06T06:04:22.012Z,100958.28
2023-04-06T06:06:29.772Z,100956.00
2023-04-06T06:08:44.914Z,100956.97
2023-04-06T06:10:51.818Z,100951.84
2023-04-06T06:12:57.994Z,100953.75
2023-04-06T06:15:02.750Z,100958.31
2023-04-06T06:17:08.471Z,100957.94
2023-04-06T06:19:11.934Z,100957.59
2023-04-06T06:21:15.783Z,100954.34
2023-04-06T06:23:18.791Z,100960.16
2023-04-06T06:25:22.417Z,100959.56
2023-04-06T06:27:27.144Z,100954.75
2023-04-06T06:29:30.295Z,100951.56
2023-04-06T06:31:34.766Z,100951.94
2023-04-06T06:33:37.649Z,100955.59
2023-04-06T06:35:40.789Z,100952.38
2023-04-06T06:37:43.745Z,100949.94
2023-04-06T06:39:50.240Z,100946.78
2023-04-06T06:41:55.347Z,100946.31
2023-04-06T06:44:17.648Z,100946.41
2023-04-06T06:46:20.838Z,100953.59
2023-04-06T06:48:25.136Z,100950.63
2023-04-06T06:50:28.166Z,100949.16
2023-04-06T06:52:31.055Z,100942.63
2023-04-06T06:54:33.987Z,100949.09
2023-04-06T06:56:38.851Z,100947.75
2023-04-06T06:58:42.383Z,100950.34
2023-04-06T07:00:45.971Z,100954.88
2023-04-06T07:02:49.152Z,100955.34
2023-04-06T07:04:53.627Z,100957.00
2023-04-06T07:06:56.831Z,100953.78
2023-04-06T07:08:59.745Z,100958.25
2023-04-06T07:11:02.892Z,100946.69
2023-04-06T07:13:05.829Z,100947.47
2023-04-06T07:15:10.204Z,100949.56
2023-04-06T07:17:13.273Z,100943.34
2023-04-06T07:19:16.298Z,100943.78
2023-04-06T07:21:21.176Z,100944.16
2023-04-06T07:23:24.128Z,100944.56
2023-04-06T07:25:27.035Z,100944.00
2023-04-06T07:27:30.005Z,100945.00
2023-04-06T07:29:33.057Z,100954.69
2023-04-06T07:31:36.953Z,100949.25
2023-04-06T07:33:40.988Z,100953.09
2023-04-06T07:35:44.560Z,100943.97
2023-04-06T07:37:49.537Z,100948.97
2023-04-06T07:39:52.544Z,100953.50
2023-04-06T07:41:55.439Z,100950.47
2023-04-06T07:43:58.652Z,100955.00
2023-04-06T07:46:01.981Z,100957.63
2023-04-06T07:48:05.158Z,100956.28
2023-04-06T07:50:10.077Z,100960.47
2023-04-06T07:52:13.860Z,100951.66
2023-04-06T07:54:19.590Z,100948.53
2023-04-06T07:56:22.891Z,100944.56
2023-04-06T07:58:25.856Z,100944.84
2023-04-06T08:00:28.771Z,100949.63
2023-04-06T08:02:31.887Z,100945.16
2023-04-06T08:04:34.998Z,100945.38
2023-04-06T08:06:38.311Z,100947.44
2023-04-06T08:08:41.223Z,100948.56
2023-04-06T08:10:45.578Z,100939.78
2023-04-06T08:12:48.532Z,100947.06
2023-04-06T08:14:51.435Z,100943.38
2023-04-06T08:16:54.508Z,100947.94
2023-04-06T08:18:57.456Z,100940.59
2023-04-06T08:21:00.447Z,100939.84
2023-04-06T08:23:03.456Z,100946.38
2023-04-06T08:25:07.192Z,100942.13
2023-04-06T08:27:11.578Z,100948.50
2023-04-06T08:29:14.523Z,100941.91
2023-04-06T08:31:17.454Z,100946.34
2023-04-06T08:33:23.677Z,100947.69
2023-04-06T08:35:28.420Z,100943.50
2023-04-06T08:37:31.618Z,100943.94
2023-04-06T08:39:34.857Z,100944.97
2023-04-06T08:41:39.879Z,100943.44
2023-04-06T08:43:48.311Z,100936.75
2023-04-06T08:45:51.758Z,100945.34
2023-04-06T08:47:56.283Z,100942.13
2023-04-06T08:50:01.226Z,100943.63
2023-04-06T08:52:04.115Z,100937.91
2023-04-06T08:54:07.293Z,100926.28
2023-04-06T08:56:12.331Z,100935.00
2023-04-06T08:58:24.143Z,100932.03
2023-04-06T09:00:38.894Z,100930.66
2023-04-06T09:02:45.668Z,100924.13
2023-04-06T09:04:50.552Z,100915.03
2023-04-06T09:06:53.386Z,100915.31
2023-04-06T09:08:57.563Z,100915.34
2023-04-06T09:11:00.477Z,100918.47
2023-04-06T09:13:07.647Z,100922.00
2023-04-06T09:15:21.575Z,100917.22
2023-04-06T09:17:30.696Z,100924.13
2023-04-06T09:19:33.791Z,100922.56
2023-04-06T09:21:36.829Z,100918.44
2023-04-06T09:23:40.575Z,100919.59
2023-04-06T09:25:43.674Z,100916.56
2023-04-06T09:27:46.572Z,100915.19
2023-04-06T09:29:49.532Z,100917.84
2023-04-06T09:31:52.603Z,100919.03
2023-04-06T09:33:57.552Z,100917.44
2023-04-06T09:36:00.417Z,100908.91
2023-04-06T09:38:13.183Z,100911.81
2023-04-06T09:40:18.354Z,100909.13
2023-04-06T09:42:27.756Z,100921.22
2023-04-06T09:44:32.444Z,100909.41
2023-04-06T09:46:50.416Z,100898.47
2023-04-06T09:49:02.060Z,100903.19
2023-04-06T09:51:07.195Z,100900.78
2023-04-06T09:53:10.600Z,100898.50
2023-04-06T09:55:19.411Z,100893.56
2023-04-06T09:57:27.848Z,100895.56
2023-04-06T09:59:39.934Z,100896.47
2023-04-06T10:01:43.686Z,100893.81
2023-04-06T10:03:54.261Z,100898.03
2023-04-06T10:06:02.023Z,100895.63
2023-04-06T10:08:08.913Z,100894.16
2023-04-06T10:10:13.575Z,100884.97
2023-04-06T10:12:17.784Z,100889.41
2023-04-06T10:14:20.743Z,100879.09
2023-04-06T10:16:25.845Z,100882.69
2023-04-06T10:18:29.372Z,100878.44
2023-04-06T10:20:40.796Z,100880.47
2023-04-06T10:22:51.779Z,100878.75
2023-04-06T10:24:54.780Z,100875.06
2023-04-06T10:27:01.268Z,100871.66
2023-04-06T10:29:05.926Z,100883.03
2023-04-06T10:31:08.864Z,100870.78
2023-04-06T10:33:15.628Z,100875.28
2023-04-06T10:35:18.630Z,100876.19
2023-04-06T10:37:22.314Z,100871.09
2023-04-06T10:39:28.853Z,100871.22
2023-04-06T10:41:36.206Z,100872.25
2023-04-06T10:43:41.133Z,100861.00
2023-04-06T10:45:44.434Z,100867.78
2023-04-06T10:47:47.625Z,100867.78
2023-04-06T10:49:50.717Z,100867.06
2023-04-06T10:51:55.646Z,100857.59
2023-04-06T10:54:00.311Z,100858.44
2023-04-06T10:56:06.184Z,100850.53
2023-04-06T10:58:09.231Z,100846.31
2023-04-06T11:00:14.529Z,100846.50
2023-04-06T11:02:26.378Z,100843.06
2023-04-06T11:04:29.540Z,100851.81
2023-04-06T11:06:33.454Z,100841.25
2023-04-06T11:08:38.019Z,100843.97
2023-04-06T11:10:41.035Z,100834.44
2023-04-06T11:12:45.346Z,100838.13
2023-04-06T11:14:55.489Z,100827.56
2023-04-06T11:16:58.529Z,100829.31
2023-04-06T11:19:04.683Z,100830.88
2023-04-06T11:21:07.747Z,100827.31
2023-04-06T11:23:11.025Z,100822.97
2023-04-06T11:25:14.736Z,100816.81
2023-04-06T11:27:19.189Z,100813.34
2023-04-06T11:29:24.483Z,100819.47
2023-04-06T11:31:27.765Z,100822.88
2023-04-06T11:33:31.404Z,100814.22
2023-04-06T11:35:34.894Z,100814.31
2023-04-06T11:37:39.166Z,100814.47
2023-04-06T11:39:48.751Z,100804.16
2023-04-06T11:41:52.356Z,100804.25
2023-04-06T11:43:57.079Z,100794.66
2023-04-06T11:46:05.008Z,100779.88
2023-04-06T11:48:08.062Z,100793.81
2023-04-06T11:50:13.101Z,100804.19
2023-04-06T11:52:17.417Z,100792.78
2023-04-06T11:54:30.984Z,100778.84
2023-04-06T11:56:33.881Z,100784.09
2023-04-06T11:58:36.858Z,100783.25
2023-04-06T12:00:39.869Z,100775.47
2023-04-06T12:02:48.254Z,100779.84
2023-04-06T12:04:51.370Z,100774.59
2023-04-06T12:06:54.380Z,100769.41
2023-04-06T12:08:57.376Z,100769.34
2023-04-06T12:11:00.743Z,100765.03
2023-04-06T12:13:03.770Z,100770.22
2023-04-06T12:15:08.037Z,100772.84
2023-04-06T12:17:11.211Z,100776.31
2023-04-06T12:19:16.062Z,100773.69
2023-04-06T12:21:19.123Z,100765.00
2023-04-06T12:23:22.032Z,100768.44
2023-04-06T12:25:25.113Z,100769.34
2023-04-06T12:27:28.049Z,100772.78
2023-04-06T12:29:31.120Z,100763.16
2023-04-06T12:31:34.485Z,100770.19
2023-04-06T12:33:37.485Z,100760.59
2023-04-06T12:35:41.820Z,100760.72
2023-04-06T12:37:44.876Z,100751.19
2023-04-06T12:39:47.829Z,100756.44
2023-04-06T12:41:50.961Z,100752.16
2023-04-06T12:43:54.128Z,100746.97
2023-04-06T12:45:57.108Z,100751.34
2023-04-06T12:48:00.610Z,100756.59
2023-04-06T12:50:03.775Z,100744.34
2023-04-06T12:52:09.460Z,100744.34
2023-04-06T12:54:12.834Z,100739.13
2023-04-06T12:56:17.898Z,100740.84
2023-04-06T12:58:21.005Z,100733.00
2023-04-06T13:00:24.350Z,100740.84
2023-04-06T13:02:28.041Z,100726.03
2023-04-06T13:04:30.992Z,100732.16
2023-04-06T13:06:36.197Z,100728.66
2023-04-06T13:08:41.640Z,100727.78
2023-04-06T13:10:45.593Z,100722.56
2023-04-06T13:12:48.571Z,100711.19
2023-04-06T13:14:53.490Z,100719.94
2023-04-06T13:16:56.535Z,100706.84
2023-04-06T13:18:59.479Z,100726.94
2023-04-06T13:21:02.424Z,100726.03
2023-04-06T13:23:05.438Z,100726.00
2023-04-06T13:25:10.318Z,100717.25
2023-04-06T13:27:13.527Z,100717.25
2023-04-06T13:29:16.491Z,100721.66
2023-04-06T13:31:19.454Z,100717.25
2023-04-06T13:33:22.412Z,100725.09
2023-04-06T13:35:25.410Z,100712.06
2023-04-06T13:37:28.365Z,100719.88
2023-04-06T13:39:31.470Z,100713.81
2023-04-06T13:41:35.734Z,100715.50
2023-04-06T13:43:38.661Z,100712.88
2023-04-06T13:45:41.829Z,100712.00
2023-04-06T13:47:44.822Z,100711.97
2023-04-06T13:49:47.764Z,100709.34
2023-04-06T13:51:50.682Z,100707.66
2023-04-06T13:53:54.594Z,100715.56
2023-04-06T13:55:57.576Z,100701.56
2023-04-06T13:58:01.747Z,100705.03
2023-04-06T14:00:07.397Z,100710.25
2023-04-06T14:02:12.257Z,100710.19
2023-04-06T14:04:15.268Z,100709.34
2023-04-06T14:08:23.709Z,100707.69
2023-04-06T14:10:28.456Z,100697.19
2023-04-06T14:12:32.664Z,100708.53
2023-04-06T14:14:36.814Z,100706.81
2023-04-06T14:16:39.720Z,100717.25
2023-04-06T14:18:43.551Z,100701.50
2023-04-06T14:20:46.338Z,100709.38
2023-04-06T14:22:50.394Z,100712.88
2023-04-06T14:24:53.237Z,100704.13
2023-04-06T14:26:56.953Z,100707.66
2023-04-06T14:29:00.980Z,100704.13
2023-04-06T14:31:12.941Z,100696.31
2023-04-06T14:33:16.338Z,100707.63
2023-04-06T14:35:19.097Z,100698.88
2023-04-06T14:37:23.138Z,100689.31
2023-04-06T14:39:26.076Z,100693.69
2023-04-06T14:41:28.857Z,100690.22
2023-04-06T14:43:31.949Z,100691.97
2023-04-06T14:45:37.631Z,100697.25
2023-04-06T14:47:41.874Z,100693.75
2023-04-06T14:49:44.736Z,100692.84
2023-04-06T14:51:47.578Z,100690.25
2023-04-06T14:53:50.549Z,100691.13
2023-04-06T14:55:53.678Z,100687.59
2023-04-06T14:57:56.528Z,100682.38
2023-04-06T14:59:59.298Z,100685.00
2023-04-06T15:02:04.014Z,100681.50
2023-04-06T15:04:09.201Z,100680.66
2023-04-06T15:06:15.969Z,100691.09
2023-04-06T15:08:21.417Z,100688.44
2023-04-06T15:10:24.325Z,100681.47
2023-04-06T15:12:27.429Z,100685.84
2023-04-06T15:14:30.445Z,100686.72
2023-04-06T15:16:33.637Z,100682.34
2023-04-06T15:18:37.050Z,100690.19
2023-04-06T15:20:42.917Z,100687.56
2023-04-06T15:22:46.715Z,100684.94
2023-04-06T15:24:49.514Z,100684.91
2023-04-06T15:26:52.474Z,100687.50
2023-04-06T15:28:55.358Z,100682.25
2023-04-06T15:30:58.441Z,100677.88
2023-04-06T15:33:03.658Z,100682.28
2023-04-06T15:35:11.533Z,100683.19
2023-04-06T15:37:15.668Z,100684.88
2023-04-06T15:39:18.454Z,100693.56
2023-04-06T15:41:21.424Z,100684.81
2023-04-06T15:43:24.186Z,100696.13
2023-04-06T15:45:27.266Z,100694.34
2023-04-06T15:47:30.321Z,100690.81
2023-04-06T15:49:33.304Z,100694.19
2023-04-06T15:51:36.478Z,100690.72
2023-04-06T15:53:40.738Z,100691.66
2023-04-06T15:55:43.569Z,100689.91
2023-04-06T15:57:46.419Z,100689.03
2023-04-06T15:59:49.345Z,100691.56
2023-04-06T16:01:52.245Z,100694.91
2023-04-06T16:03:55.174Z,100697.56
2023-04-06T16:06:08.060Z,100693.28
2023-04-06T16:08:12.661Z,100692.38
2023-04-06T16:10:16.844Z,100697.56
2023-04-06T16:12:20.029Z,100685.28
2023-04-06T16:14:22.816Z,100690.66
2023-04-06T16:16:25.681Z,100690.53
2023-04-06T16:18:28.570Z,100692.28
2023-04-06T16:20:33.282Z,100690.59
2023-04-06T16:22:36.539Z,100700.09
2023-04-06T16:24:39.400Z,100695.66
2023-04-06T16:26:44.343Z,100694.75
2023-04-06T16:28:47.404Z,100696.56
2023-04-06T16:30:50.244Z,100693.13
2023-04-06T16:32:53.123Z,100701.81
2023-04-06T16:34:56.020Z,100701.00
2023-04-06T16:36:58.911Z,100701.88
2023-04-06T16:39:02.925Z,100699.22
2023-04-06T16:41:05.943Z,100700.97
2023-04-06T16:43:10.681Z,100706.19
2023-04-06T16:45:13.374Z,100716.50
2023-04-06T16:47:16.536Z,100701.72
2023-04-06T16:49:19.398Z,100702.63
2023-04-06T16:51:22.211Z,100699.16
2023-04-06T16:53:25.040Z,100705.19
2023-04-06T16:55:27.863Z,100707.75
2023-04-06T16:57:30.685Z,100709.44
2023-04-06T16:59:35.997Z,100713.75
2023-04-06T17:01:39.001Z,100701.53
2023-04-06T17:03:44.177Z,100704.22
2023-04-06T17:05:47.024Z,100710.19
2023-04-06T17:07:49.972Z,100712.81
2023-04-06T17:09:52.771Z,100711.16
2023-04-06T17:11:56.750Z,100711.97
2023-04-06T17:13:59.604Z,100718.78
2023-04-06T17:16:04.139Z,100714.38
2023-04-06T17:18:07.341Z,100720.34
2023-04-06T17:20:10.608Z,100708.06
2023-04-06T17:22:13.466Z,100709.69
2023-04-06T17:24:16.313Z,100716.63
2023-04-06T17:26:19.185Z,100714.09
2023-04-06T17:28:22.078Z,100713.13
2023-04-06T17:30:26.294Z,100717.44
2023-04-06T17:32:30.507Z,100719.09
2023-04-06T17:34:33.331Z,100714.78
2023-04-06T17:36:36.210Z,100714.78
2023-04-06T17:38:43.295Z,100718.31
2023-04-06T17:40:46.147Z,100718.34
2023-04-06T17:42:48.972Z,100716.59
2023-04-06T17:44:53.224Z,100720.91
2023-04-06T17:46:56.514Z,100721.69
2023-04-06T17:49:00.621Z,100727.66
2023-04-06T17:51:03.814Z,100721.53
2023-04-06T17:53:06.921Z,100722.25
2023-04-06T17:55:10.179Z,100732.72
2023-04-06T17:57:12.995Z,100738.66
2023-04-06T17:59:16.051Z,100735.91
2023-04-06T18:01:19.365Z,100743.84
2023-04-06T18:03:22.305Z,100744.00
2023-04-06T18:05:27.037Z,100741.44
2023-04-06T18:07:30.268Z,100756.88
2023-04-06T18:09:33.257Z,100757.72
2023-04-06T18:11:36.377Z,100764.59
2023-04-06T18:13:40.092Z,100763.47
2023-04-06T18:15:43.357Z,100773.81
2023-04-06T18:17:47.178Z,100775.38
2023-04-06T18:19:50.056Z,100782.34
2023-04-06T18:21:54.239Z,100787.44
2023-04-06T18:23:57.046Z,100793.19
2023-04-06T18:26:00.616Z,100792.41
2023-04-06T18:28:03.556Z,100794.69
2023-04-06T18:30:07.582Z,100797.34
2023-04-06T18:32:10.526Z,100796.41
2023-04-06T18:34:13.384Z,100804.13
2023-04-06T18:36:16.307Z,100813.38
2023-04-06T18:38:21.295Z,100810.06
2023-04-06T18:40:35.485Z,100813.47
2023-04-06T18:42:38.819Z,100810.03
2023-04-06T18:44:41.695Z,100817.81
2023-04-06T18:46:44.724Z,100825.16
2023-04-06T18:48:47.754Z,100825.88
2023-04-06T18:50:54.076Z,100820.78
2023-04-06T18:52:57.064Z,100824.53
2023-04-06T18:55:01.337Z,100823.63
2023-04-06T18:57:04.826Z,100828.13
2023-04-06T18:59:07.802Z,100825.44
2023-04-06T19:01:10.756Z,100822.56
2023-04-06T19:03:13.686Z,100834.59
2023-04-06T19:05:16.834Z,100835.31
2023-04-06T19:07:19.765Z,100838.09
2023-04-06T19:09:22.574Z,100835.59
2023-04-06T19:11:27.348Z,100843.41
2023-04-06T19:13:30.168Z,100840.03
2023-04-06T19:15:33.173Z,100842.56
2023-04-06T19:17:37.873Z,100844.50
2023-04-06T19:19:40.598Z,100836.56
2023-04-06T19:21:43.436Z,100831.50
2023-04-06T19:23:47.793Z,100841.81
2023-04-06T19:25:52.375Z,100835.75
2023-04-06T19:27:57.486Z,100841.97
2023-04-06T19:30:00.645Z,100840.19
2023-04-06T19:32:03.511Z,100841.81
2023-04-06T19:34:06.887Z,100830.56
2023-04-06T19:36:10.396Z,100835.75
2023-04-06T19:38:13.205Z,100837.38
2023-04-06T19:40:16.212Z,100840.75
2023-04-06T19:42:21.437Z,100837.19
2023-04-06T19:44:25.843Z,100838.84
2023-04-06T19:46:29.046Z,100841.38
2023-04-06T19:48:33.607Z,100840.50
2023-04-06T19:50:36.545Z,100837.84
2023-04-06T19:52:39.536Z,100838.66
2023-04-06T19:54:42.752Z,100839.44
2023-04-06T19:56:45.609Z,100835.97
2023-04-06T19:58:48.362Z,100843.69
2023-04-06T20:00:52.592Z,100837.56
2023-04-06T20:02:55.677Z,100845.31
2023-04-06T20:04:58.533Z,100844.38
2023-04-06T20:07:01.416Z,100841.56
2023-04-06T20:09:04.590Z,100838.06
2023-04-06T20:11:08.418Z,100839.63
2023-04-06T20:13:11.294Z,100839.56
2023-04-06T20:15:14.052Z,100836.84
2023-04-06T20:17:18.236Z,100838.44
2023-04-06T20:19:21.052Z,100836.81
2023-04-06T20:21:23.923Z,100836.00
2023-04-06T20:23:27.107Z,100839.34
2023-04-06T20:25:29.940Z,100837.66
2023-04-06T20:27:32.778Z,100836.03
2023-04-06T20:29:35.742Z,100834.19
2023-04-06T20:31:38.630Z,100829.88
2023-04-06T20:33:42.863Z,100835.06
2023-04-06T20:35:45.742Z,100833.16
2023-04-06T20:37:48.570Z,100829.59
2023-04-06T20:39:51.617Z,100824.31
2023-04-06T20:41:54.732Z,100822.59
2023-04-06T20:43:58.124Z,100824.34
2023-04-06T20:46:02.186Z,100816.59
2023-04-06T20:48:05.379Z,100820.09
2023-04-06T20:50:10.416Z,100813.06
2023-04-06T20:52:13.541Z,100811.34
2023-04-06T20:54:16.753Z,100818.28
2023-04-06T20:56:20.110Z,100811.41
2023-04-06T20:58:22.877Z,100809.72
2023-04-06T21:00:26.016Z,100807.16
2023-04-06T21:02:29.111Z,100809.59
2023-04-06T21:04:32.190Z,100796.34
2023-04-06T21:06:36.648Z,100791.16
2023-04-06T21:08:39.910Z,100794.56
2023-04-06T21:10:42.712Z,100791.97
2023-04-06T21:12:45.605Z,100787.56
2023-04-06T21:14:48.453Z,100788.22
2023-04-06T21:16:51.846Z,100785.56
2023-04-06T21:18:54.719Z,100790.78
2023-04-06T21:20:57.506Z,100784.88
2023-04-06T21:23:01.826Z,100785.75
2023-04-06T21:25:05.233Z,100783.91
2023-04-06T21:27:08.295Z,100777.09
2023-04-06T21:29:11.026Z,100777.00
2023-04-06T21:31:16.410Z,100774.34
2023-04-06T21:33:19.443Z,100775.97
2023-04-06T21:35:22.207Z,100773.31
2023-04-06T21:37:25.010Z,100773.94
2023-04-06T21:39:29.298Z,100764.41
2023-04-06T21:41:32.709Z,100763.56
2023-04-06T21:43:35.708Z,100761.00
2023-04-06T21:45:40.245Z,100767.06
2023-04-06T21:47:43.062Z,100758.25
2023-04-06T21:49:45.863Z,100754.81
2023-04-06T21:51:48.724Z,100753.06
2023-04-06T21:53:53.210Z,100761.78
2023-04-06T21:55:57.335Z,100765.25
2023-04-06T21:58:00.191Z,100756.44
2023-04-06T22:00:03.369Z,100757.31
2023-04-06T22:02:06.208Z,100753.91
2023-04-06T22:04:09.209Z,100747.88
2023-04-06T22:06:12.229Z,100740.16
2023-04-06T22:08:25.376Z,100751.31
2023-04-06T22:10:33.160Z,100748.81
2023-04-06T22:12:37.322Z,100745.38
2023-04-06T22:14:40.371Z,100743.63
2023-04-06T22:16:43.295Z,100746.09
2023-04-06T22:18:46.654Z,100737.41
2023-04-06T22:20:49.509Z,100745.16
2023-04-06T22:22:52.337Z,100740.06
2023-04-06T22:24:56.669Z,100737.31
2023-04-06T22:26:59.485Z,100741.63
2023-04-06T22:29:03.872Z,100735.44
2023-04-06T22:31:06.811Z,100733.81
2023-04-06T22:33:09.728Z,100728.56
2023-04-06T22:35:12.544Z,100725.84
2023-04-06T22:37:15.453Z,100730.28
2023-04-06T22:39:18.303Z,100727.47
2023-04-06T22:41:21.136Z,100724.84
2023-04-06T22:43:23.930Z,100730.19
2023-04-06T22:45:28.165Z,100722.31
2023-04-06T22:47:31.012Z,100722.25
2023-04-06T22:49:33.837Z,100725.78
2023-04-06T22:51:36.624Z,100718.88
2023-04-06T22:53:39.421Z,100722.44
2023-04-06T22:55:42.282Z,100718.13
2023-04-06T22:57:45.284Z,100716.34
2023-04-06T22:59:48.083Z,100707.66
2023-04-06T23:01:52.361Z,100720.72
2023-04-06T23:03:55.234Z,100718.03
2023-04-06T23:05:58.118Z,100713.78
2023-04-06T23:08:00.933Z,100713.84
2023-04-06T23:10:04.034Z,100706.06
2023-04-06T23:12:07.216Z,100706.78
2023-04-06T23:14:10.042Z,100708.44
2023-04-06T23:16:12.879Z,100706.75
2023-04-06T23:18:17.105Z,100696.50
2023-04-06T23:20:20.393Z,100696.47
2023-04-06T23:22:23.164Z,100703.25
2023-04-06T23:24:27.474Z,100698.91
2023-04-06T23:26:30.551Z,100687.78
2023-04-06T23:28:33.345Z,100693.78
2023-04-06T23:30:36.279Z,100697.22
2023-04-06T23:32:39.212Z,100691.16
2023-04-06T23:34:43.522Z,100685.03
2023-04-06T23:36:46.316Z,100688.53
2023-04-06T23:38:49.095Z,100683.34
2023-04-06T23:40:51.999Z,100680.63
2023-04-06T23:42:54.839Z,100682.31
2023-04-06T23:44:57.680Z,100682.06